Terminal Aerodrome Forecast
Issued by NWS

Home | Current Version | Previous Version | Text Only | Print | Product List | Glossary Off
Versions: 1 2 3 4 5 6 7 8 9 10 11 12 13 14 15 16 17 18 19 20 21

000
FTUS43 KICT 261056 AAB
TAFSLN
TAF AMD
KSLN 261056Z 2611/2706 VRB03KT 3SM +RA BR OVC005
      TEMPO 2611/2614 6SM RA SCT007 OVC013
     FM261400 VRB04KT P6SM VCSH OVC008
     FM261700 15007KT P6SM OVC015
     FM261830 18009KT P6SM BKN025 OVC130
     FM262000 19013KT P6SM BKN035 OVC130=

USA.gov is the U.S. government's official web portal to all federal, state and local government web resources and services.